Time;durP1;ratioP1;P1;durP2;ratioP2;P2;SDS_P1;SDS_P2;PMS_P1;PMS_P2;Temp;Humidity;BMP_temperature;BMP_pressure;BME280_temperature;BME280_humidity;BME280_pressure;Samples;Min_cycle;Max_cycle;Signal;HPM_P1;HPM_P2
2023/04/05 00:02:05;;;;;;;4.95;2.92;;;;;;;23.48;37.75;99935.69;4346630;33;33919;-61
2023/04/05 00:04:33;;;;;;;5.80;2.97;;;;;;;23.48;37.74;99935.69;4346609;33;34213;-61
2023/04/05 00:07:01;;;;;;;5.28;3.12;;;;;;;23.46;37.79;99935.91;4346514;33;33379;-61
2023/04/05 00:09:28;;;;;;;7.55;2.80;;;;;;;23.47;37.76;99931.31;4346600;33;34782;-61
2023/04/05 00:11:56;;;;;;;4.43;2.47;;;;;;;23.46;37.78;99930.47;4346482;33;34174;-61
2023/04/05 00:14:23;;;;;;;4.75;2.50;;;;;;;23.44;37.82;99929.84;4346399;33;33994;-61
2023/04/05 00:16:51;;;;;;;4.40;2.67;;;;;;;23.44;37.80;99932.56;4346287;33;33731;-61
2023/04/05 00:19:21;;;;;;;7.03;2.65;;;;;;;23.43;37.82;99926.28;4346750;33;33807;-61
2023/04/05 00:21:53;;;;;;;4.22;2.33;;;;;;;23.42;37.82;99924.63;4346432;33;34096;-61
2023/04/05 00:24:21;;;;;;;5.22;2.78;;;;;;;23.41;37.82;99922.97;4339771;33;34965;-61
2023/04/05 00:26:49;;;;;;;4.37;2.67;;;;;;;23.43;37.82;99920.84;4331576;33;33868;-60
2023/04/05 00:29:16;;;;;;;5.35;2.72;;;;;;;23.42;37.87;99916.47;4331561;33;34662;-61
2023/04/05 00:31:44;;;;;;;5.57;2.62;;;;;;;23.41;37.87;99913.97;4318338;33;34173;-61
2023/04/05 00:34:12;;;;;;;4.62;2.85;;;;;;;23.41;37.88;99919.41;4331355;33;33554;-61
2023/04/05 00:36:40;;;;;;;5.47;2.80;;;;;;;23.39;37.86;99910.63;4331544;33;33591;-61
2023/04/05 00:39:07;;;;;;;6.18;2.40;;;;;;;23.39;37.86;99916.91;4331497;33;33881;-61
2023/04/05 00:41:36;;;;;;;4.50;2.60;;;;;;;23.38;37.88;99914.41;4331329;33;34411;-61
2023/04/05 00:44:04;;;;;;;4.65;3.00;;;;;;;23.38;37.88;99919.84;4331333;33;34813;-61
2023/04/05 00:46:35;;;;;;;5.15;2.87;;;;;;;23.38;37.89;99914.41;4333238;33;34321;-61
2023/04/05 00:49:03;;;;;;;4.93;2.45;;;;;;;23.37;37.91;99913.59;4319803;33;33717;-61
2023/04/05 00:51:33;;;;;;;3.97;2.45;;;;;;;23.35;37.93;99915.69;4319979;33;34425;-60
2023/04/05 00:54:01;;;;;;;4.87;2.78;;;;;;;23.36;37.91;99919.22;4333267;33;33970;-60
2023/04/05 00:56:29;;;;;;;5.55;2.58;;;;;;;23.35;37.91;99910.22;4319559;33;33317;-61
2023/04/05 00:58:57;;;;;;;6.18;3.12;;;;;;;23.36;37.95;99913.78;4319890;33;33381;-61
2023/04/05 01:01:25;;;;;;;5.43;2.80;;;;;;;23.35;37.97;99914.84;4333116;33;34083;-61
2023/04/05 01:03:59;;;;;;;4.43;2.53;;;;;;;23.34;37.94;99918.63;4333002;33;33990;-61
2023/04/05 01:06:30;;;;;;;4.60;2.65;;;;;;;23.33;37.94;99914.25;4320089;33;33732;-61
2023/04/05 01:09:03;;;;;;;7.97;2.70;;;;;;;23.34;37.93;99910.47;4332849;33;33699;-61
2023/04/05 01:11:31;;;;;;;4.35;2.90;;;;;;;23.32;37.92;99907.97;4333020;33;34036;-61
2023/04/05 01:13:59;;;;;;;4.00;2.50;;;;;;;23.33;37.94;99908.81;4307747;33;34376;-61
2023/04/05 01:16:28;;;;;;;5.60;2.83;;;;;;;23.32;37.96;99907.97;4332746;33;33948;-61
2023/04/05 01:18:56;;;;;;;7.22;2.55;;;;;;;23.31;37.99;99911.72;4333347;33;34848;-61
2023/04/05 01:21:33;;;;;;;6.28;2.97;;;;;;;23.31;37.95;99908.19;4307860;33;34040;-61
2023/04/05 01:24:16;;;;;;;5.03;2.50;;;;;;;23.31;37.95;99903.56;4337250;33;34862;-61
2023/04/05 01:27:27;;;;;;;4.78;2.65;;;;;;;23.29;37.97;99904.84;4347662;33;33692;-61
2023/04/05 01:30:08;;;;;;;4.22;2.12;;;;;;;23.29;37.98;99904.84;4306094;33;34638;-60
2023/04/05 01:32:42;;;;;;;5.05;2.58;;;;;;;23.27;38.02;99901.50;4334393;33;34049;-61
2023/04/05 01:35:47;;;;;;;5.90;2.67;;;;;;;23.25;38.05;99901.75;4334224;33;34256;-61
2023/04/05 01:38:17;;;;;;;4.32;2.30;;;;;;;23.25;38.01;99899.03;4332539;33;33266;-62
2023/04/05 01:40:44;;;;;;;3.83;2.47;;;;;;;23.23;38.03;99903.88;4334419;33;34280;-61
2023/04/05 01:43:16;;;;;;;3.90;2.40;;;;;;;23.24;38.07;99899.25;4322280;33;33753;-61
2023/04/05 01:45:44;;;;;;;4.90;2.72;;;;;;;23.23;38.13;99894.87;4333902;33;35026;-61
2023/04/05 01:48:12;;;;;;;4.25;2.58;;;;;;;23.23;38.18;99901.16;4347620;33;34281;-60
2023/04/05 01:50:39;;;;;;;4.78;2.37;;;;;;;23.22;38.16;99895.91;4347561;33;34097;-61
2023/04/05 01:53:07;;;;;;;4.18;2.17;;;;;;;23.22;38.14;99898.62;4347401;33;34856;-60
2023/04/05 01:55:35;;;;;;;4.80;2.67;;;;;;;23.22;38.13;99898.62;4333771;33;34223;-61
2023/04/05 01:58:03;;;;;;;3.78;2.30;;;;;;;23.21;38.13;99899.69;4346959;33;33213;-60
2023/04/05 02:00:31;;;;;;;4.62;2.60;;;;;;;23.22;38.12;99893.19;4347356;33;34649;-61
2023/04/05 02:02:59;;;;;;;4.70;2.70;;;;;;;23.21;38.13;99894.25;4347474;33;33987;-61
2023/04/05 02:05:27;;;;;;;4.20;2.50;;;;;;;23.20;38.15;99887.13;4333799;33;33112;-60
2023/04/05 02:07:54;;;;;;;4.80;2.50;;;;;;;23.20;38.14;99893.41;4347381;33;35043;-61
2023/04/05 02:10:24;;;;;;;3.85;2.20;;;;;;;23.21;38.14;99894.25;4347316;33;34028;-61
2023/04/05 02:12:51;;;;;;;3.87;2.40;;;;;;;23.19;38.16;99891.75;4334084;33;34134;-61
2023/04/05 02:15:19;;;;;;;4.28;2.28;;;;;;;23.20;38.14;99898.84;4333847;33;34888;-61
2023/04/05 02:17:47;;;;;;;3.95;2.30;;;;;;;23.20;38.16;99896.13;4347243;33;33604;-61
2023/04/05 02:20:14;;;;;;;4.20;2.40;;;;;;;23.21;38.15;99894.25;4347395;32;33765;-61
2023/04/05 02:22:44;;;;;;;5.72;2.37;;;;;;;23.19;38.16;99894.47;4347300;33;33797;-60
2023/04/05 02:25:12;;;;;;;4.07;2.20;;;;;;;23.20;38.16;99889.88;4322306;33;34273;-61
2023/04/05 02:27:40;;;;;;;4.57;2.45;;;;;;;23.19;38.14;99891.75;4332524;33;34124;-61
2023/04/05 02:30:08;;;;;;;3.60;2.22;;;;;;;23.17;38.15;99891.12;4332469;33;33680;-61
2023/04/05 02:32:35;;;;;;;9.38;2.40;;;;;;;23.17;38.14;99881.09;4332574;33;33935;-61
2023/04/05 02:35:03;;;;;;;3.67;2.22;;;;;;;23.17;38.15;99891.97;4332564;33;34474;-61
2023/04/05 02:37:31;;;;;;;3.47;2.00;;;;;;;23.17;38.13;99893.84;4319125;33;33829;-61
2023/04/05 02:40:01;;;;;;;3.87;2.20;;;;;;;23.17;38.10;99891.97;4332617;33;33897;-61
2023/04/05 02:42:28;;;;;;;5.40;2.45;;;;;;;23.16;38.10;99890.28;4319563;33;33945;-61
2023/04/05 02:44:56;;;;;;;4.85;2.30;;;;;;;23.16;38.08;99884.84;4332361;33;35014;-61
2023/04/05 02:47:23;;;;;;;5.60;2.25;;;;;;;23.16;38.10;99881.31;4332510;33;33827;-61
2023/04/05 02:49:51;;;;;;;4.03;2.15;;;;;;;23.16;38.11;99884.03;4332676;33;34958;-61
2023/04/05 02:52:20;;;;;;;5.32;2.55;;;;;;;23.13;38.13;99879.87;4332352;33;35161;-61
2023/04/05 02:54:48;;;;;;;4.45;2.35;;;;;;;23.13;38.11;99884.50;4332411;33;33822;-61
2023/04/05 02:57:17;;;;;;;5.30;2.37;;;;;;;23.13;38.11;99885.31;4318861;33;32742;-61
2023/04/05 02:59:45;;;;;;;3.55;2.05;;;;;;;23.12;38.12;99883.62;4332711;33;33966;-61
2023/04/05 03:02:13;;;;;;;5.85;2.45;;;;;;;23.13;38.09;99885.31;4332518;33;34149;-60
2023/04/05 03:04:43;;;;;;;3.85;2.08;;;;;;;23.12;38.10;99886.34;4332437;33;34963;-61
2023/04/05 03:07:17;;;;;;;3.87;2.22;;;;;;;23.12;38.10;99882.78;4319277;33;33476;-61
2023/04/05 03:09:46;;;;;;;3.35;2.28;;;;;;;23.12;38.12;99888.25;4319265;33;34656;-64
2023/04/05 03:12:14;;;;;;;4.93;2.47;;;;;;;23.12;38.11;99886.34;4317189;33;33939;-72
2023/04/05 03:14:42;;;;;;;3.22;1.90;;;;;;;23.11;38.04;99886.59;4330394;33;34698;-61
2023/04/05 03:17:10;;;;;;;6.00;2.60;;;;;;;23.11;37.86;99887.41;4330361;33;33400;-61
2023/04/05 03:19:38;;;;;;;4.85;2.28;;;;;;;23.10;37.84;99890.38;4316918;33;33171;-61
2023/04/05 03:22:07;;;;;;;4.28;2.30;;;;;;;23.09;37.83;99883.25;4330929;33;33618;-60
2023/04/05 03:24:36;;;;;;;5.50;2.20;;;;;;;23.09;37.81;99881.38;4338618;33;34974;-61
2023/04/05 03:27:05;;;;;;;6.75;2.15;;;;;;;23.07;37.84;99885.34;4331546;33;33192;-61
2023/04/05 03:29:33;;;;;;;6.40;2.45;;;;;;;23.07;37.83;99885.34;4345132;33;33648;-61
2023/04/05 03:32:05;;;;;;;5.35;2.58;;;;;;;23.06;37.84;99884.53;4331244;33;32858;-61
2023/04/05 03:34:32;;;;;;;5.65;2.67;;;;;;;23.07;37.84;99891.63;4345222;33;34675;-61
2023/04/05 03:37:01;;;;;;;6.00;2.15;;;;;;;23.06;37.84;99889.97;4345145;33;34547;-61
2023/04/05 03:39:29;;;;;;;8.07;2.95;;;;;;;23.06;37.84;99895.41;4345551;33;34018;-61
2023/04/05 03:41:56;;;;;;;6.10;2.50;;;;;;;23.06;37.85;99900.03;4346864;33;34808;-61
2023/04/05 03:44:24;;;;;;;3.65;2.33;;;;;;;23.04;37.85;99897.53;4346785;33;34237;-61
2023/04/05 03:46:52;;;;;;;4.12;2.10;;;;;;;23.05;37.86;99903.81;4346864;33;33469;-61
2023/04/05 03:49:20;;;;;;;4.15;2.47;;;;;;;23.03;37.86;99906.72;4321466;33;34556;-62
2023/04/05 03:51:49;;;;;;;4.35;2.37;;;;;;;23.03;37.85;99904.00;4346957;33;33825;-61
2023/04/05 03:54:18;;;;;;;4.55;2.08;;;;;;;23.03;37.85;99903.19;4321166;33;33989;-61
2023/04/05 03:56:45;;;;;;;5.03;2.28;;;;;;;23.04;37.84;99908.41;4346724;33;35011;-61
2023/04/05 03:59:13;;;;;;;5.22;2.72;;;;;;;23.04;37.83;99910.31;4346954;33;33706;-61
2023/04/05 04:01:41;;;;;;;5.90;2.35;;;;;;;23.03;37.84;99911.34;4333548;33;33835;-61
2023/04/05 04:04:09;;;;;;;4.00;2.12;;;;;;;23.02;37.86;99917.84;4346738;33;34248;-61
2023/04/05 04:06:37;;;;;;;3.87;2.15;;;;;;;23.00;37.87;99909.91;4346834;33;33578;-61
2023/04/05 04:09:04;;;;;;;5.35;2.50;;;;;;;23.00;37.89;99914.53;4346384;33;33742;-61
2023/04/05 04:11:32;;;;;;;3.62;2.22;;;;;;;23.00;37.89;99914.53;4346565;33;33673;-61
2023/04/05 04:14:00;;;;;;;4.15;2.08;;;;;;;22.99;37.90;99921.00;4346726;33;34113;-61
2023/04/05 04:16:30;;;;;;;4.78;2.10;;;;;;;22.98;37.91;99914.72;4333641;33;34223;-61
2023/04/05 04:18:58;;;;;;;4.45;2.10;;;;;;;22.99;37.90;99916.41;4346004;33;34809;-61
2023/04/05 04:21:31;;;;;;;4.57;2.17;;;;;;;22.98;37.91;99914.72;4346374;33;33765;-61
2023/04/05 04:23:59;;;;;;;5.45;2.53;;;;;;;22.98;37.87;99914.72;4342354;33;34281;-61
2023/04/05 04:26:36;;;;;;;5.00;2.17;;;;;;;23.00;37.89;99911.81;4331668;33;33354;-61
2023/04/05 04:29:05;;;;;;;6.00;2.15;;;;;;;22.97;37.95;99913.06;4318056;33;32727;-61
2023/04/05 04:31:33;;;;;;;3.08;2.00;;;;;;;22.99;37.95;99910.13;4331829;33;34990;-61
2023/04/05 04:34:04;;;;;;;3.80;2.17;;;;;;;22.97;37.96;99918.50;4331846;33;34220;-61
2023/04/05 04:36:33;;;;;;;4.30;2.15;;;;;;;22.97;37.97;99909.50;4331778;33;33700;-61
2023/04/05 04:39:05;;;;;;;4.70;2.20;;;;;;;22.97;37.96;99914.97;4331512;33;34100;-61
2023/04/05 04:41:34;;;;;;;4.30;2.00;;;;;;;22.96;37.96;99919.56;4331560;33;33756;-61
2023/04/05 04:44:03;;;;;;;5.07;1.90;;;;;;;22.96;37.97;99921.47;4318254;33;34762;-61
2023/04/05 04:46:33;;;;;;;4.32;2.58;;;;;;;22.95;38.00;99917.06;4331556;33;33602;-61
2023/04/05 04:49:04;;;;;;;4.05;2.00;;;;;;;22.93;38.03;99917.28;4331078;33;34011;-61
2023/04/05 04:51:32;;;;;;;4.45;2.40;;;;;;;22.94;38.01;99921.66;4331306;33;34764;-61
2023/04/05 04:54:00;;;;;;;4.00;2.15;;;;;;;22.93;38.05;99922.72;4331265;33;34101;-61
2023/04/05 04:56:28;;;;;;;5.15;2.40;;;;;;;22.93;38.08;99922.72;4317989;33;34104;-60
2023/04/05 04:58:56;;;;;;;4.75;2.20;;;;;;;22.91;38.07;99930.28;4331496;33;34299;-61
2023/04/05 05:01:25;;;;;;;4.68;2.10;;;;;;;22.91;38.09;99922.94;4331297;33;34023;-61
2023/04/05 05:03:53;;;;;;;3.60;2.30;;;;;;;22.91;38.07;99933.00;4317777;33;33116;-61
2023/04/05 05:06:21;;;;;;;3.53;2.10;;;;;;;22.90;38.08;99932.16;4318043;33;33117;-61
2023/04/05 05:08:49;;;;;;;4.35;2.12;;;;;;;22.90;38.08;99932.16;4330832;33;34652;-61
2023/04/05 05:11:16;;;;;;;5.07;2.30;;;;;;;22.90;38.10;99926.72;4331031;33;34949;-61
2023/04/05 05:13:44;;;;;;;3.75;2.17;;;;;;;22.91;38.10;99930.28;4331254;33;34292;-61
2023/04/05 05:16:20;;;;;;;4.35;2.10;;;;;;;22.90;38.13;99934.06;4330873;33;34525;-61
2023/04/05 05:18:50;;;;;;;4.22;2.10;;;;;;;22.89;38.13;99935.91;4330945;33;34572;-61
2023/04/05 05:21:17;;;;;;;6.47;2.75;;;;;;;22.89;38.15;99935.91;4330855;33;33762;-61
2023/04/05 05:23:50;;;;;;;4.00;1.83;;;;;;;22.89;38.15;99937.81;4334099;33;33939;-61
2023/04/05 05:26:18;;;;;;;3.87;1.92;;;;;;;22.89;38.15;99937.81;4332417;33;33204;-62
2023/04/05 05:28:47;;;;;;;4.18;2.00;;;;;;;22.87;38.16;99940.72;4345483;33;33640;-61
2023/04/05 05:31:16;;;;;;;6.93;2.17;;;;;;;22.88;38.18;99938.84;4346499;33;33915;-61
2023/04/05 05:33:46;;;;;;;3.95;2.03;;;;;;;22.88;38.21;99942.41;4334491;33;34322;-62
2023/04/05 05:36:14;;;;;;;5.35;2.00;;;;;;;22.87;38.22;99943.44;4347411;33;34437;-61
2023/04/05 05:38:42;;;;;;;6.57;2.42;;;;;;;22.88;38.22;99944.28;4347162;33;34024;-62
2023/04/05 05:41:11;;;;;;;10.20;6.05;;;;;;;22.87;38.01;99939.91;4347498;33;34760;-59
2023/04/05 05:43:38;;;;;;;10.57;4.87;;;;;;;22.77;32.20;99942.28;4347313;33;33870;-59
2023/04/05 05:46:05;;;;;;;9.23;3.80;;;;;;;22.71;33.86;99934.97;4347449;33;33569;-61
2023/04/05 05:48:33;;;;;;;8.13;3.33;;;;;;;22.70;35.01;99936.84;4347571;33;33727;-61
2023/04/05 05:51:01;;;;;;;10.55;3.33;;;;;;;22.69;35.53;99931.66;4347354;33;33784;-61
2023/04/05 05:53:29;;;;;;;6.95;3.70;;;;;;;22.67;35.50;99935.41;4347452;33;34876;-61
2023/04/05 05:55:58;;;;;;;8.77;3.33;;;;;;;22.65;35.57;99934.78;4340687;33;33325;-60
2023/04/05 05:58:25;;;;;;;6.82;3.50;;;;;;;22.65;35.59;99931.25;4326094;33;33237;-61
2023/04/05 06:00:55;;;;;;;5.18;3.40;;;;;;;22.65;35.63;99936.69;4326897;33;32881;-61
2023/04/05 06:03:28;;;;;;;9.90;3.53;;;;;;;22.63;35.67;99930.63;4339566;33;34930;-60
2023/04/05 06:05:57;;;;;;;8.90;3.47;;;;;;;22.63;35.69;99928.75;4342978;33;34378;-61
2023/04/05 06:08:26;;;;;;;5.97;3.10;;;;;;;22.62;35.67;99929.81;4347225;33;34657;-61
2023/04/05 06:10:54;;;;;;;6.18;3.35;;;;;;;22.61;35.68;99935.44;4338523;33;33965;-58
2023/04/05 06:13:21;;;;;;;11.23;3.25;;;;;;;22.60;35.69;99934.63;4332807;33;33883;-61
2023/04/05 06:15:50;;;;;;;5.93;3.05;;;;;;;22.60;35.72;99931.06;4336811;33;33232;-61
2023/04/05 06:18:19;;;;;;;4.80;2.87;;;;;;;22.58;35.75;99931.28;4337644;33;34620;-61
2023/04/05 06:20:47;;;;;;;6.22;3.08;;;;;;;22.58;35.74;99933.19;4335156;33;34151;-62
2023/04/05 06:23:14;;;;;;;9.02;3.53;;;;;;;22.58;35.71;99934.00;4332544;33;34355;-61
2023/04/05 06:25:42;;;;;;;5.90;3.25;;;;;;;22.58;35.67;99930.47;4322012;33;32721;-63
2023/04/05 06:28:09;;;;;;;6.72;3.08;;;;;;;22.57;35.55;99931.50;4332488;33;34755;-62
2023/04/05 06:30:37;;;;;;;5.45;2.72;;;;;;;22.55;35.55;99926.28;4332264;33;33951;-62
2023/04/05 06:33:05;;;;;;;6.87;3.28;;;;;;;22.55;35.57;99934.44;4330648;33;34283;-62
2023/04/05 06:35:34;;;;;;;9.15;3.15;;;;;;;22.55;35.58;99930.88;4330625;33;33485;-62
2023/04/05 06:38:02;;;;;;;8.18;3.00;;;;;;;22.53;35.60;99935.72;4330873;33;33512;-62
2023/04/05 06:40:29;;;;;;;6.93;3.17;;;;;;;22.53;35.60;99936.56;4330403;33;34133;-62
2023/04/05 06:42:57;;;;;;;6.62;3.05;;;;;;;22.51;35.65;99943.25;4329827;33;33908;-61
2023/04/05 06:45:26;;;;;;;6.80;3.37;;;;;;;22.50;35.67;99934.25;4317562;33;33406;-61
2023/04/05 06:47:53;;;;;;;7.82;3.17;;;;;;;22.50;35.70;99938.84;4331645;33;34238;-61
2023/04/05 06:50:21;;;;;;;6.03;2.72;;;;;;;22.49;35.72;99946.19;4332423;33;34923;-61
2023/04/05 06:52:49;;;;;;;6.50;3.50;;;;;;;22.48;35.76;99939.09;4332584;33;34305;-60
2023/04/05 06:55:16;;;;;;;5.95;2.92;;;;;;;22.47;35.77;99945.56;4331729;33;34497;-61
2023/04/05 06:57:44;;;;;;;5.50;2.83;;;;;;;22.47;35.80;99942.00;4332283;33;33537;-61
2023/04/05 07:00:12;;;;;;;9.00;3.10;;;;;;;22.45;35.83;99942.22;4332216;33;34778;-61
2023/04/05 07:02:40;;;;;;;6.05;3.20;;;;;;;22.45;35.85;99934.06;4332058;33;34111;-61
2023/04/05 07:05:09;;;;;;;5.57;2.78;;;;;;;22.44;35.87;99935.13;4332468;33;33516;-61
2023/04/05 07:07:42;;;;;;;4.72;2.60;;;;;;;22.44;35.90;99939.75;4332259;33;33994;-61
2023/04/05 07:10:09;;;;;;;5.18;3.00;;;;;;;22.44;35.93;99932.41;4332254;33;34501;-61
2023/04/05 07:12:38;;;;;;;6.05;3.20;;;;;;;22.44;35.93;99934.31;4332207;33;34336;-61
2023/04/05 07:15:06;;;;;;;5.50;2.90;;;;;;;22.46;35.93;99932.19;4332243;33;33676;-62
2023/04/05 07:17:33;;;;;;;4.87;2.45;;;;;;;22.44;35.99;99935.13;4318926;33;33368;-62
2023/04/05 07:20:01;;;;;;;6.43;2.90;;;;;;;22.51;35.88;99937.81;4332329;33;33609;-62
2023/04/05 07:22:29;;;;;;;5.03;2.60;;;;;;;22.52;35.91;99943.03;4318820;33;34111;-62
2023/04/05 07:24:56;;;;;;;5.68;2.37;;;;;;;22.52;35.95;99934.03;4342205;33;34617;-61
2023/04/05 07:27:24;;;;;;;5.82;2.87;;;;;;;22.52;35.95;99937.59;4341862;33;170169;-61
2023/04/05 07:29:52;;;;;;;6.85;2.67;;;;;;;22.52;35.97;99934.03;4346768;33;35254;-61
2023/04/05 07:32:19;;;;;;;5.40;2.75;;;;;;;22.52;35.97;99929.44;4346988;33;33992;-61
2023/04/05 07:34:48;;;;;;;5.62;3.10;;;;;;;22.53;36.01;99935.72;4347015;33;33734;-61
2023/04/05 07:37:15;;;;;;;6.53;2.80;;;;;;;22.54;36.02;99931.94;4346916;33;34332;-62
2023/04/05 07:39:43;;;;;;;6.20;2.53;;;;;;;22.60;35.92;99931.87;4333300;33;32947;-62
2023/04/05 07:42:11;;;;;;;6.10;2.85;;;;;;;22.66;35.83;99932.91;4346806;33;34132;-61
2023/04/05 07:44:38;;;;;;;6.68;2.60;;;;;;;22.69;35.78;99937.09;4346654;33;33551;-62
2023/04/05 07:47:05;;;;;;;5.87;2.60;;;;;;;22.70;35.76;99931.41;4346702;33;33695;-61
2023/04/05 07:49:33;;;;;;;8.32;2.65;;;;;;;22.73;35.74;99924.72;4346799;33;33914;-61
2023/04/05 07:52:01;;;;;;;5.47;2.75;;;;;;;22.75;35.74;99933.47;4346626;33;34470;-61
2023/04/05 07:54:37;;;;;;;5.93;2.55;;;;;;;22.76;35.72;99922.41;4346784;33;33999;-62
2023/04/05 07:57:06;;;;;;;5.28;2.72;;;;;;;22.77;35.72;99926.78;4346792;32;33985;-61
2023/04/05 07:59:34;;;;;;;5.05;2.45;;;;;;;22.79;35.72;99930.09;4346756;33;33673;-61
2023/04/05 08:02:02;;;;;;;5.47;2.65;;;;;;;22.81;35.72;99932.63;4346709;33;33691;-62
2023/04/05 08:04:41;;;;;;;7.18;2.33;;;;;;;22.82;35.70;99929.69;4346530;33;33746;-62
2023/04/05 08:07:08;;;;;;;5.18;2.67;;;;;;;22.84;35.70;99929.44;4346607;33;34481;-61
2023/04/05 08:09:37;;;;;;;5.28;2.47;;;;;;;22.85;35.71;99931.13;4346518;33;34920;-61
2023/04/05 08:12:05;;;;;;;7.43;2.92;;;;;;;22.86;35.74;99932.81;4346477;33;33895;-61
2023/04/05 08:14:32;;;;;;;5.37;2.50;;;;;;;22.87;35.73;99920.84;4346688;33;33605;-62
2023/04/05 08:17:00;;;;;;;4.95;2.22;;;;;;;22.89;35.74;99932.37;4346332;33;33732;-61
2023/04/05 08:19:28;;;;;;;7.50;2.67;;;;;;;22.89;35.75;99929.66;4346326;33;33926;-61
2023/04/05 08:21:55;;;;;;;5.10;2.65;;;;;;;22.90;35.76;99936.78;4346728;33;34298;-62
2023/04/05 08:24:23;;;;;;;4.10;2.35;;;;;;;22.90;35.75;99929.44;4339686;33;33503;-61
2023/04/05 08:26:51;;;;;;;4.85;2.40;;;;;;;22.92;35.78;99934.66;4331512;33;33866;-62
2023/04/05 08:29:18;;;;;;;4.60;2.33;;;;;;;22.92;35.81;99927.34;4318546;33;33715;-62
2023/04/05 08:31:46;;;;;;;4.03;2.50;;;;;;;22.94;35.82;99931.72;4331564;33;34239;-62
2023/04/05 08:34:16;;;;;;;5.25;2.35;;;;;;;22.94;35.83;99927.09;4331417;33;34000;-61
2023/04/05 08:36:43;;;;;;;4.70;2.85;;;;;;;22.95;35.83;99931.50;4331537;33;33600;-62
2023/04/05 08:39:14;;;;;;;5.97;2.22;;;;;;;22.97;35.82;99926.66;4331392;33;34664;-62
2023/04/05 08:41:59;;;;;;;5.32;2.53;;;;;;;22.98;35.80;99922.88;4331609;33;33912;-61
2023/04/05 08:44:28;;;;;;;4.57;2.37;;;;;;;23.00;35.81;99922.69;4330221;33;33564;-62
2023/04/05 08:46:57;;;;;;;4.95;2.45;;;;;;;23.01;35.81;99927.06;4330082;33;34093;-61
2023/04/05 08:49:25;;;;;;;3.75;2.12;;;;;;;22.99;35.85;99935.47;4330058;33;34952;-61
2023/04/05 08:51:53;;;;;;;6.45;2.55;;;;;;;23.01;35.83;99924.34;4331326;33;34223;-62
2023/04/05 08:54:21;;;;;;;4.65;2.50;;;;;;;23.02;35.84;99923.28;4332946;33;33912;-61
2023/04/05 08:56:48;;;;;;;4.55;2.40;;;;;;;23.03;35.85;99919.50;4346917;32;33748;-61
2023/04/05 08:59:16;;;;;;;4.40;2.40;;;;;;;23.02;35.85;99915.94;4347337;32;33887;-62
2023/04/05 09:01:44;;;;;;;4.82;2.30;;;;;;;23.04;35.84;99908.41;4325708;33;34653;-61
2023/04/05 09:04:17;;;;;;;4.68;2.30;;;;;;;23.04;35.85;99919.31;4318882;33;33710;-62
2023/04/05 09:07:05;;;;;;;4.25;2.25;;;;;;;23.05;35.85;99914.69;4342752;33;34700;-61
2023/04/05 09:09:33;;;;;;;4.80;2.40;;;;;;;23.08;35.81;99920.53;4334568;33;34052;-62
2023/04/05 09:12:05;;;;;;;4.10;2.00;;;;;;;23.07;35.84;99920.72;4332212;32;33975;-62
2023/04/05 09:14:33;;;;;;;4.07;2.20;;;;;;;23.06;35.85;99917.19;4349446;32;33722;-61
2023/04/05 09:17:02;;;;;;;4.72;2.20;;;;;;;23.08;35.84;99920.53;4349061;32;34280;-61
2023/04/05 09:19:30;;;;;;;4.07;2.12;;;;;;;23.09;35.84;99919.47;4359096;32;34164;-62
2023/04/05 09:22:01;;;;;;;4.28;2.20;;;;;;;23.11;35.82;99916.53;4347926;33;34257;-61
2023/04/05 09:24:40;;;;;;;4.47;2.40;;;;;;;23.10;35.84;99914.84;4347909;33;33479;-62
2023/04/05 09:27:09;;;;;;;4.57;2.28;;;;;;;23.12;35.84;99918.19;4333904;33;32821;-62
2023/04/05 09:29:38;;;;;;;4.37;1.95;;;;;;;23.12;35.83;99908.13;4343835;32;33831;-61
2023/04/05 09:32:07;;;;;;;4.45;2.47;;;;;;;23.13;35.85;99911.72;4347850;33;34302;-62
2023/04/05 09:34:37;;;;;;;3.70;2.37;;;;;;;23.14;35.83;99921.53;4347682;33;33663;-61
2023/04/05 09:37:16;;;;;;;5.22;2.17;;;;;;;23.14;35.83;99906.03;4347907;33;34509;-61
2023/04/05 09:39:44;;;;;;;3.92;2.05;;;;;;;23.16;35.83;99905.78;4347269;33;34173;-62
2023/04/05 09:42:16;;;;;;;5.40;2.20;;;;;;;23.16;35.81;99908.53;4334212;33;33863;-62
2023/04/05 09:45:00;;;;;;;4.15;2.37;;;;;;;23.16;35.82;99901.19;4347757;32;33537;-61
2023/04/05 09:47:31;;;;;;;4.93;2.42;;;;;;;23.16;35.84;99901.19;4347774;33;33983;-62
2023/04/05 09:50:00;;;;;;;4.78;2.40;;;;;;;23.16;35.83;99887.56;4347369;33;34764;-62
2023/04/05 09:52:32;;;;;;;5.03;2.35;;;;;;;23.15;35.85;99883.19;4334213;33;35073;-61
2023/04/05 09:55:01;;;;;;;4.85;2.25;;;;;;;23.16;35.84;99890.28;4334389;33;33678;-61
2023/04/05 09:57:32;;;;;;;4.37;2.22;;;;;;;23.15;35.84;99885.91;4347386;33;33911;-61
2023/04/05 10:00:00;;;;;;;4.55;2.50;;;;;;;23.15;35.83;99885.91;4347566;33;33550;-62
2023/04/05 10:02:38;;;;;;;4.82;2.58;;;;;;;23.15;35.83;99888.63;4322251;33;33998;-61
2023/04/05 10:05:10;;;;;;;4.68;2.08;;;;;;;23.15;35.83;99883.19;4347469;33;33555;-61
2023/04/05 10:07:38;;;;;;;4.80;2.28;;;;;;;23.15;35.85;99879.63;4332714;33;33647;-61
2023/04/05 10:10:07;;;;;;;5.05;2.40;;;;;;;23.15;35.85;99887.81;4332518;33;34815;-61
2023/04/05 10:12:37;;;;;;;5.30;2.53;;;;;;;23.15;35.85;99890.53;4319464;33;34388;-61
2023/04/05 10:15:05;;;;;;;;;;;;;;;23.14;35.87;99883.44;4332981;33;34476;-61
2023/04/05 10:17:54;;;;;;;3.92;2.10;;;;;;;23.23;35.72;99878.53;4331915;33;34233;-61
2023/04/05 10:20:22;;;;;;;4.67;2.17;;;;;;;23.16;35.82;99882.13;4332226;33;34126;-61
2023/04/05 10:23:00;;;;;;;4.95;2.15;;;;;;;23.13;35.87;99870.87;4333935;33;34964;-61
2023/04/05 10:25:45;;;;;;;4.43;2.10;;;;;;;23.11;35.91;99876.53;4347365;33;33906;-61
2023/04/05 10:28:33;;;;;;;5.03;2.20;;;;;;;23.08;35.95;99870.69;4335551;33;33933;-61
2023/04/05 10:31:10;;;;;;;5.07;2.10;;;;;;;23.09;35.91;99873.22;4347131;33;33895;-61
2023/04/05 10:33:44;;;;;;;5.72;2.00;;;;;;;23.07;35.94;99869.84;4347607;33;33688;-61
2023/04/05 10:36:36;;;;;;;5.15;2.35;;;;;;;23.07;35.95;99856.25;4347528;32;34037;-62
2023/04/05 10:39:32;;;;;;;8.32;2.85;;;;;;;23.06;35.93;99860.03;4335929;33;33627;-61
2023/04/05 10:42:05;;;;;;;7.03;3.42;;;;;;;23.07;35.87;99852.69;4347303;33;34075;-61
2023/04/05 10:44:33;;;;;;;8.07;4.45;;;;;;;23.02;35.46;99866.97;4333969;33;33837;-60
2023/04/05 10:47:01;;;;;;;6.40;4.22;;;;;;;23.00;31.49;99857.38;4321942;33;33378;-61
2023/04/05 10:49:33;;;;;;;7.78;4.82;;;;;;;22.91;30.55;99865.81;4333803;33;33843;-61
2023/04/05 10:52:02;;;;;;;7.45;4.95;;;;;;;22.83;29.22;99847.00;4347075;33;34583;-62
2023/04/05 10:54:35;;;;;;;12.73;5.53;;;;;;;22.71;29.03;99848.78;4333912;33;33409;-61
2023/04/05 10:57:05;;;;;;;6.82;4.22;;;;;;;22.64;29.26;99847.97;4347114;33;33898;-61
2023/04/05 10:59:40;;;;;;;7.07;4.30;;;;;;;22.62;29.90;99847.38;4347095;33;34422;-61
2023/04/05 11:02:08;;;;;;;6.87;4.28;;;;;;;22.58;30.17;99840.72;4333692;33;33696;-61
2023/04/05 11:04:36;;;;;;;8.20;4.65;;;;;;;22.56;30.02;99851.78;4333625;33;33863;-62
2023/04/05 11:07:13;;;;;;;6.30;3.90;;;;;;;22.54;30.25;99843.03;4347069;33;33761;-61
2023/04/05 11:10:00;;;;;;;9.35;4.45;;;;;;;22.52;30.21;99834.28;4347314;32;33730;-61
2023/04/05 11:12:47;;;;;;;8.88;4.43;;;;;;;22.53;30.29;99846.81;4333690;33;33528;-61
2023/04/05 11:15:26;;;;;;;7.78;4.65;;;;;;;22.53;30.19;99843.25;4333723;33;34233;-61
2023/04/05 11:18:15;;;;;;;8.55;5.07;;;;;;;22.51;30.07;99848.06;4346928;33;33129;-61
2023/04/05 11:20:55;;;;;;;6.82;4.35;;;;;;;22.49;29.96;99834.72;4346800;33;34470;-61
2023/04/05 11:23:23;;;;;;;8.65;4.75;;;;;;;22.48;29.78;99840.37;4334302;33;34982;-61
2023/04/05 11:25:53;;;;;;;7.55;4.70;;;;;;;22.44;29.79;99831.81;4333713;33;34112;-62
2023/04/05 11:28:28;;;;;;;7.55;4.60;;;;;;;22.43;29.71;99830.16;4347035;32;34426;-61
2023/04/05 11:30:57;;;;;;;6.90;4.60;;;;;;;22.46;29.61;99842.47;4346928;33;33621;-61
2023/04/05 11:33:41;;;;;;;8.07;4.43;;;;;;;22.42;29.32;99834.72;4346903;33;33954;-61
2023/04/05 11:36:09;;;;;;;8.05;4.22;;;;;;;22.42;29.02;99837.44;4346731;33;34572;-61
2023/04/05 11:38:37;;;;;;;7.45;4.65;;;;;;;22.39;28.90;99834.34;4346966;33;34492;-62
2023/04/05 11:41:12;;;;;;;6.53;4.62;;;;;;;22.38;28.78;99838.09;4346815;33;33981;-61
2023/04/05 11:43:41;;;;;;;7.20;4.68;;;;;;;22.37;28.80;99831.00;4332398;32;33730;-61
2023/04/05 11:46:09;;;;;;;6.95;4.45;;;;;;;22.37;28.83;99828.28;4346797;32;34188;-61
2023/04/05 11:48:36;;;;;;;8.85;4.78;;;;;;;22.35;28.94;99827.69;4361606;32;34367;-61